createdAt,value
2024-02-29T00:02:14.819Z,45.64
2024-02-29T00:04:44.182Z,45.67
2024-02-29T00:07:10.940Z,45.55
2024-02-29T00:09:37.658Z,45.50
2024-02-29T00:12:05.320Z,45.46
2024-02-29T00:14:32.104Z,45.58
2024-02-29T00:16:59.360Z,45.37
2024-02-29T00:19:26.013Z,45.26
2024-02-29T00:21:52.671Z,45.40
2024-02-29T00:24:19.371Z,45.42
2024-02-29T00:26:46.712Z,45.56
2024-02-29T00:29:13.333Z,45.58
2024-02-29T00:31:46.108Z,45.65
2024-02-29T00:34:13.408Z,45.57
2024-02-29T00:36:40.188Z,45.68
2024-02-29T00:39:14.416Z,45.46
2024-02-29T00:41:41.856Z,45.45
2024-02-29T00:44:08.509Z,45.70
2024-02-29T00:46:38.362Z,45.36
2024-02-29T00:49:05.061Z,45.31
2024-02-29T00:51:32.338Z,45.59
2024-02-29T00:53:59.508Z,45.45
2024-02-29T00:56:26.495Z,45.49
2024-02-29T00:58:53.121Z,45.48
2024-02-29T01:01:19.844Z,45.54
2024-02-29T01:03:46.606Z,45.51
2024-02-29T01:06:13.265Z,45.53
2024-02-29T01:08:39.915Z,45.31
2024-02-29T01:11:06.867Z,45.20
2024-02-29T01:13:33.636Z,45.38
2024-02-29T01:16:00.301Z,45.38
2024-02-29T01:18:26.926Z,45.50
2024-02-29T01:20:53.550Z,45.61
2024-02-29T01:23:20.187Z,45.67
2024-02-29T01:25:46.804Z,45.78
2024-02-29T01:28:13.550Z,45.46
2024-02-29T01:30:40.232Z,45.68
2024-02-29T01:33:06.938Z,45.63
2024-02-29T01:35:33.605Z,45.48
2024-02-29T01:38:00.223Z,45.37
2024-02-29T01:40:26.821Z,45.54
2024-02-29T01:42:53.498Z,45.78
2024-02-29T01:45:20.360Z,45.78
2024-02-29T01:47:47.044Z,45.47
2024-02-29T01:50:15.206Z,45.73
2024-02-29T01:52:42.768Z,45.59
2024-02-29T01:55:11.316Z,45.23
2024-02-29T01:57:38.982Z,45.35
2024-02-29T02:00:07.157Z,45.65
2024-02-29T02:02:33.812Z,45.61
2024-02-29T02:05:00.448Z,45.43
2024-02-29T02:07:27.350Z,45.14
2024-02-29T02:09:54.321Z,45.41
2024-02-29T02:12:20.949Z,45.50
2024-02-29T02:14:47.578Z,45.59
2024-02-29T02:17:14.319Z,45.53
2024-02-29T02:19:42.751Z,45.32
2024-02-29T02:22:10.944Z,45.30
2024-02-29T02:24:37.961Z,45.34
2024-02-29T02:27:04.684Z,45.29
2024-02-29T02:29:31.348Z,45.38
2024-02-29T02:31:57.972Z,45.31
2024-02-29T02:34:24.914Z,45.29
2024-02-29T02:36:51.704Z,45.35
2024-02-29T02:39:18.526Z,45.24
2024-02-29T02:41:46.343Z,45.22
2024-02-29T02:44:13.504Z,45.51
2024-02-29T02:46:40.309Z,45.28
2024-02-29T02:49:07.216Z,45.42
2024-02-29T02:51:34.120Z,45.16
2024-02-29T02:54:00.804Z,45.40
2024-02-29T02:56:27.521Z,45.50
2024-02-29T02:58:54.302Z,45.38
2024-02-29T03:01:21.029Z,45.37
2024-02-29T03:03:47.936Z,45.47
2024-02-29T03:06:15.575Z,45.47
2024-02-29T03:08:42.329Z,45.30
2024-02-29T03:11:09.217Z,45.41
2024-02-29T03:13:36.062Z,45.32
2024-02-29T03:16:02.823Z,45.27
2024-02-29T03:18:29.561Z,45.33
2024-02-29T03:20:56.209Z,45.44
2024-02-29T03:23:22.885Z,45.41
2024-02-29T03:25:49.646Z,45.45
2024-02-29T03:28:16.320Z,45.27
2024-02-29T03:30:43.065Z,45.47
2024-02-29T03:33:09.759Z,45.52
2024-02-29T03:35:36.519Z,45.39
2024-02-29T03:38:04.023Z,45.19
2024-02-29T03:40:30.731Z,45.44
2024-02-29T03:42:57.630Z,45.44
2024-02-29T03:45:24.397Z,45.35
2024-02-29T03:47:51.072Z,45.23
2024-02-29T03:50:17.678Z,45.30
2024-02-29T03:52:44.341Z,45.42
2024-02-29T03:55:12.702Z,45.42
2024-02-29T03:57:39.492Z,45.53
2024-02-29T04:00:12.109Z,45.42
2024-02-29T04:02:39.921Z,45.45
2024-02-29T04:05:09.234Z,45.53
2024-02-29T04:07:39.595Z,45.40
2024-02-29T04:10:06.606Z,45.29
2024-02-29T04:12:33.626Z,45.31
2024-02-29T04:15:02.766Z,45.42
2024-02-29T04:17:33.094Z,45.20
2024-02-29T04:19:59.804Z,45.33
2024-02-29T04:22:26.485Z,45.11
2024-02-29T04:24:53.243Z,45.29
2024-02-29T04:27:19.938Z,45.15
2024-02-29T04:29:49.574Z,45.30
2024-02-29T04:32:16.200Z,45.15
2024-02-29T04:34:43.045Z,45.35
2024-02-29T04:37:09.813Z,45.39
2024-02-29T04:39:36.587Z,45.38
2024-02-29T04:42:04.680Z,45.23
2024-02-29T04:44:31.387Z,45.35
2024-02-29T04:46:58.075Z,45.66
2024-02-29T04:49:24.760Z,45.43
2024-02-29T04:51:51.488Z,45.18
2024-02-29T04:54:18.537Z,45.40
2024-02-29T04:56:45.264Z,45.33
2024-02-29T04:59:11.944Z,45.41
2024-02-29T05:01:38.797Z,45.70
2024-02-29T05:04:05.727Z,45.51
2024-02-29T05:06:32.477Z,45.37
2024-02-29T05:08:59.839Z,45.44
2024-02-29T05:11:27.339Z,45.64
2024-02-29T05:13:54.041Z,45.52
2024-02-29T05:16:21.474Z,45.33
2024-02-29T05:18:48.232Z,45.60
2024-02-29T05:21:14.998Z,45.43
2024-02-29T05:23:41.705Z,45.21
2024-02-29T05:26:09.149Z,45.42
2024-02-29T05:28:36.001Z,45.32
2024-02-29T05:31:02.752Z,45.20
2024-02-29T05:33:29.458Z,45.43
2024-02-29T05:35:56.081Z,45.54
2024-02-29T05:38:22.686Z,45.41
2024-02-29T05:40:49.320Z,45.24
2024-02-29T05:43:16.149Z,45.38
2024-02-29T05:45:42.960Z,45.65
2024-02-29T05:48:09.958Z,45.39
2024-02-29T05:50:36.617Z,45.51
2024-02-29T05:53:03.420Z,45.38
2024-02-29T05:55:30.041Z,45.55
2024-02-29T05:57:56.675Z,45.44
2024-02-29T06:00:23.469Z,45.42
2024-02-29T06:02:52.846Z,45.46
2024-02-29T06:05:20.457Z,45.60
2024-02-29T06:07:47.140Z,45.47
2024-02-29T06:10:13.802Z,45.42
2024-02-29T06:12:40.813Z,45.54
2024-02-29T06:15:11.102Z,45.59
2024-02-29T06:17:39.220Z,45.55
2024-02-29T06:20:11.663Z,45.42
2024-02-29T06:22:40.713Z,45.49
2024-02-29T06:25:09.936Z,45.44
2024-02-29T06:27:37.464Z,45.60
2024-02-29T06:30:05.468Z,45.35
2024-02-29T06:32:32.361Z,45.70
2024-02-29T06:34:59.149Z,45.51
2024-02-29T06:37:25.832Z,45.38
2024-02-29T06:39:52.639Z,45.68
2024-02-29T06:42:19.989Z,45.63
2024-02-29T06:44:46.595Z,45.49
2024-02-29T06:47:13.209Z,45.54
2024-02-29T06:49:39.822Z,45.69
2024-02-29T06:52:06.512Z,45.61
2024-02-29T06:54:33.166Z,45.39
2024-02-29T06:56:59.994Z,45.48
2024-02-29T06:59:26.633Z,45.53
2024-02-29T07:01:53.411Z,45.55
2024-02-29T07:04:20.194Z,45.60
2024-02-29T07:06:47.955Z,45.64
2024-02-29T07:09:14.620Z,45.49
2024-02-29T07:11:42.040Z,45.30
2024-02-29T07:14:08.758Z,45.59
2024-02-29T07:16:37.214Z,45.36
2024-02-29T07:19:05.270Z,45.48
2024-02-29T07:21:33.436Z,45.57
2024-02-29T07:24:00.182Z,45.27
2024-02-29T07:26:27.403Z,45.27
2024-02-29T07:28:54.156Z,45.46
2024-02-29T07:31:21.420Z,45.49
2024-02-29T07:33:48.216Z,45.43
2024-02-29T07:36:14.866Z,45.50
2024-02-29T07:38:41.479Z,45.43
2024-02-29T07:41:11.175Z,44.94
2024-02-29T07:43:37.805Z,44.77
2024-02-29T07:46:04.648Z,44.83
2024-02-29T07:48:31.454Z,44.79
2024-02-29T07:50:58.070Z,44.61
2024-02-29T07:53:24.707Z,44.33
2024-02-29T07:55:51.317Z,44.20
2024-02-29T07:58:18.131Z,44.42
2024-02-29T08:00:44.814Z,44.28
2024-02-29T08:03:11.531Z,44.52
2024-02-29T08:05:39.584Z,44.20
2024-02-29T08:08:06.402Z,44.24
2024-02-29T08:10:33.030Z,44.36
2024-02-29T08:12:59.711Z,44.41
2024-02-29T08:15:26.409Z,44.40
2024-02-29T08:17:53.178Z,44.63
2024-02-29T08:20:21.415Z,44.93
2024-02-29T08:22:54.952Z,44.52
2024-02-29T08:25:22.571Z,44.55
2024-02-29T08:27:49.843Z,44.77
2024-02-29T08:30:17.145Z,44.77
2024-02-29T08:32:44.438Z,44.61
2024-02-29T08:35:11.458Z,44.72
2024-02-29T08:37:38.147Z,45.24
2024-02-29T08:40:06.244Z,45.52
2024-02-29T08:42:32.995Z,45.25
2024-02-29T08:44:59.603Z,45.23
2024-02-29T08:47:26.252Z,45.54
2024-02-29T08:49:54.254Z,45.75
2024-02-29T08:52:21.272Z,46.01
2024-02-29T08:54:48.382Z,45.84
2024-02-29T08:57:15.088Z,46.00
2024-02-29T08:59:42.359Z,45.63
2024-02-29T09:02:09.048Z,45.86
2024-02-29T09:04:35.689Z,45.98
2024-02-29T09:07:03.845Z,45.86
2024-02-29T09:09:30.726Z,46.03
2024-02-29T09:11:57.506Z,45.69
2024-02-29T09:14:24.160Z,45.63
2024-02-29T09:16:51.423Z,45.51
2024-02-29T09:19:18.166Z,45.74
2024-02-29T09:21:45.140Z,45.78
2024-02-29T09:24:14.762Z,45.83
2024-02-29T09:26:42.680Z,45.81
2024-02-29T09:29:09.393Z,45.89
2024-02-29T09:31:38.573Z,45.92
2024-02-29T09:34:05.311Z,45.78
2024-02-29T09:36:32.899Z,46.04
2024-02-29T09:38:59.615Z,45.85
2024-02-29T09:43:59.224Z,45.92
2024-02-29T09:46:25.838Z,46.00
2024-02-29T09:48:53.435Z,46.01
2024-02-29T09:51:23.295Z,45.89
2024-02-29T09:53:51.964Z,46.03
2024-02-29T09:56:26.669Z,46.00
2024-02-29T09:58:53.824Z,45.96
2024-02-29T10:01:20.970Z,46.04
2024-02-29T10:03:48.025Z,45.95
2024-02-29T10:06:15.075Z,45.88
2024-02-29T10:08:41.999Z,45.94
2024-02-29T10:11:08.831Z,45.93
2024-02-29T10:13:40.127Z,46.01
2024-02-29T10:16:08.506Z,45.81
2024-02-29T10:18:36.970Z,45.91
2024-02-29T10:21:14.274Z,46.06
2024-02-29T10:23:41.175Z,45.95
2024-02-29T10:26:08.597Z,46.02
2024-02-29T10:28:35.429Z,45.96
2024-02-29T10:31:02.596Z,46.09
2024-02-29T10:33:29.709Z,45.98
2024-02-29T10:35:57.539Z,46.04
2024-02-29T10:38:24.389Z,46.03
2024-02-29T10:40:54.551Z,45.91
2024-02-29T10:43:21.927Z,45.83
2024-02-29T10:45:51.929Z,46.15
2024-02-29T10:48:21.198Z,46.05
2024-02-29T10:51:04.739Z,46.14
2024-02-29T10:53:49.737Z,46.40
2024-02-29T10:56:26.421Z,46.07
2024-02-29T10:59:06.343Z,46.01
2024-02-29T11:01:33.675Z,46.08
2024-02-29T11:04:00.617Z,45.91
2024-02-29T11:06:29.107Z,45.89
2024-02-29T11:08:56.312Z,46.08
2024-02-29T11:11:26.361Z,46.16
2024-02-29T11:14:08.999Z,46.02
2024-02-29T11:16:42.960Z,46.27
2024-02-29T11:19:16.940Z,46.05
2024-02-29T11:21:43.825Z,46.11
2024-02-29T11:24:17.105Z,46.31
2024-02-29T11:26:43.801Z,46.37
2024-02-29T11:29:20.976Z,46.17
2024-02-29T11:31:57.569Z,46.17
2024-02-29T11:34:24.401Z,46.32
2024-02-29T11:36:52.177Z,46.04
2024-02-29T11:39:22.139Z,46.02
2024-02-29T11:41:49.771Z,46.12
2024-02-29T11:44:16.819Z,46.31
2024-02-29T11:46:47.471Z,46.29
2024-02-29T11:49:16.095Z,46.23
2024-02-29T11:51:43.803Z,46.24
2024-02-29T11:54:11.584Z,46.46
2024-02-29T11:56:38.985Z,46.08
2024-02-29T11:59:07.843Z,46.18
2024-02-29T12:01:37.671Z,46.19
2024-02-29T12:04:06.035Z,46.08
2024-02-29T12:06:34.478Z,45.84
2024-02-29T12:09:01.548Z,45.94
2024-02-29T12:11:28.309Z,46.22
2024-02-29T12:13:55.133Z,46.25
2024-02-29T12:16:21.820Z,46.29
2024-02-29T12:18:48.540Z,46.31
2024-02-29T12:21:15.193Z,46.25
2024-02-29T12:23:41.863Z,46.10
2024-02-29T12:26:12.392Z,46.07
2024-02-29T12:28:39.994Z,46.24
2024-02-29T12:31:07.880Z,45.96
2024-02-29T12:33:39.325Z,46.14
2024-02-29T12:36:07.902Z,46.27
2024-02-29T12:38:35.670Z,46.10
2024-02-29T12:41:03.667Z,46.25
2024-02-29T12:43:30.573Z,46.31
2024-02-29T12:45:57.300Z,46.44
2024-02-29T12:48:24.900Z,46.29
2024-02-29T12:50:52.367Z,46.05
2024-02-29T12:53:19.190Z,46.21
2024-02-29T12:55:46.123Z,46.11
2024-02-29T12:58:13.214Z,46.12
2024-02-29T13:00:40.107Z,46.07
2024-02-29T13:03:08.307Z,46.29
2024-02-29T13:05:35.659Z,46.00
2024-02-29T13:08:05.419Z,46.22
2024-02-29T13:10:32.071Z,46.08
2024-02-29T13:13:04.009Z,46.20
2024-02-29T13:15:36.454Z,46.25
2024-02-29T13:18:03.227Z,46.18
2024-02-29T13:20:29.906Z,46.21
2024-02-29T13:22:56.639Z,46.22
2024-02-29T13:25:23.516Z,46.15
2024-02-29T13:27:50.340Z,45.97
2024-02-29T13:30:17.104Z,46.27
2024-02-29T13:32:43.797Z,46.29
2024-02-29T13:35:10.475Z,46.32
2024-02-29T13:37:37.222Z,46.33
2024-02-29T13:40:05.229Z,46.29
2024-02-29T13:42:32.063Z,46.17
2024-02-29T13:44:58.695Z,46.17
2024-02-29T13:47:25.304Z,46.26
2024-02-29T13:49:52.050Z,46.17
2024-02-29T13:52:19.256Z,46.45
2024-02-29T13:54:47.054Z,46.12
2024-02-29T13:57:15.301Z,46.28
2024-02-29T13:59:43.623Z,46.50
2024-02-29T14:02:10.507Z,46.03
2024-02-29T14:04:37.812Z,46.13
2024-02-29T14:07:05.369Z,46.33
2024-02-29T14:09:34.072Z,46.25
2024-02-29T14:12:00.768Z,46.10
2024-02-29T14:14:27.446Z,46.28
2024-02-29T14:16:54.086Z,46.53
2024-02-29T14:19:20.827Z,45.99
2024-02-29T14:21:47.717Z,46.37
2024-02-29T14:24:14.365Z,46.47
2024-02-29T14:26:41.096Z,46.19
2024-02-29T14:29:09.027Z,46.11
2024-02-29T14:31:35.799Z,46.41
2024-02-29T14:34:02.581Z,46.39
2024-02-29T14:36:29.206Z,46.34
2024-02-29T14:38:55.885Z,46.33
2024-02-29T14:41:22.569Z,46.29
2024-02-29T14:43:49.321Z,46.16
2024-02-29T14:46:16.209Z,46.28
2024-02-29T14:48:42.910Z,45.99
2024-02-29T14:51:09.519Z,46.29
2024-02-29T14:53:36.155Z,46.43
2024-02-29T14:56:02.784Z,46.25
2024-02-29T14:58:30.810Z,46.21
2024-02-29T15:00:57.758Z,46.20
2024-02-29T15:03:24.510Z,46.04
2024-02-29T15:05:51.157Z,46.27
2024-02-29T15:08:20.019Z,46.17
2024-02-29T15:10:47.246Z,46.15
2024-02-29T15:13:14.003Z,46.11
2024-02-29T15:15:41.228Z,46.08
2024-02-29T15:18:08.021Z,46.26
2024-02-29T15:20:34.765Z,46.26
2024-02-29T15:23:01.418Z,46.26
2024-02-29T15:25:29.638Z,46.21
2024-02-29T15:27:58.012Z,46.18
2024-02-29T15:30:24.914Z,46.15
2024-02-29T15:32:52.305Z,46.21
2024-02-29T15:35:18.971Z,46.08
2024-02-29T15:37:45.614Z,46.30
2024-02-29T15:40:12.518Z,46.13
2024-02-29T15:42:39.706Z,46.34
2024-02-29T15:45:06.922Z,46.43
2024-02-29T15:47:33.604Z,46.16
2024-02-29T15:50:00.273Z,46.21
2024-02-29T15:52:27.093Z,46.30
2024-02-29T15:54:53.834Z,46.34
2024-02-29T15:57:20.486Z,46.01
2024-02-29T15:59:47.209Z,46.17
2024-02-29T16:02:13.919Z,46.32
2024-02-29T16:04:40.661Z,46.53
2024-02-29T16:07:07.298Z,46.41
2024-02-29T16:09:33.937Z,46.36
2024-02-29T16:12:00.871Z,46.30
2024-02-29T16:14:30.334Z,46.41
2024-02-29T16:16:59.069Z,46.55
2024-02-29T16:19:28.160Z,46.23
2024-02-29T16:21:57.966Z,46.54
2024-02-29T16:24:24.683Z,46.42
2024-02-29T16:26:53.540Z,46.53
2024-02-29T16:29:20.245Z,46.62
2024-02-29T16:31:47.557Z,46.23
2024-02-29T16:34:14.318Z,46.37
2024-02-29T16:36:41.522Z,46.23
2024-02-29T16:39:08.374Z,46.46
2024-02-29T16:41:34.986Z,46.41
2024-02-29T16:44:01.653Z,46.58
2024-02-29T16:46:28.391Z,46.34
2024-02-29T16:48:57.919Z,46.22
2024-02-29T16:51:24.576Z,46.45
2024-02-29T16:53:55.234Z,46.54
2024-02-29T16:56:24.294Z,46.48
2024-02-29T16:58:51.951Z,46.32
2024-02-29T17:01:20.165Z,46.45
2024-02-29T17:03:46.988Z,46.42
2024-02-29T17:06:13.672Z,46.51
2024-02-29T17:08:40.325Z,46.52
2024-02-29T17:11:09.847Z,46.68
2024-02-29T17:13:36.537Z,46.32
2024-02-29T17:16:03.175Z,46.35
2024-02-29T17:18:30.929Z,46.46
2024-02-29T17:20:57.572Z,46.47
2024-02-29T17:23:24.259Z,46.43
2024-02-29T17:25:50.868Z,46.47
2024-02-29T17:28:17.518Z,46.49
2024-02-29T17:30:44.411Z,46.26
2024-02-29T17:33:11.167Z,46.28
2024-02-29T17:35:40.299Z,46.16
2024-02-29T17:38:07.227Z,46.45
2024-02-29T17:40:33.933Z,46.34
2024-02-29T17:43:00.648Z,46.27
2024-02-29T17:45:27.310Z,46.54
2024-02-29T17:47:53.972Z,46.57
2024-02-29T17:50:21.641Z,46.47
2024-02-29T17:52:48.681Z,46.41
2024-02-29T17:55:16.626Z,46.36
2024-02-29T17:57:46.924Z,46.52
2024-02-29T18:00:15.434Z,46.34
2024-02-29T18:02:42.917Z,46.35
2024-02-29T18:05:11.282Z,46.12
2024-02-29T18:07:43.797Z,46.45
2024-02-29T18:10:17.765Z,45.98
2024-02-29T18:12:44.644Z,45.71
2024-02-29T18:15:12.467Z,46.17
2024-02-29T18:17:39.215Z,46.36
2024-02-29T18:20:09.128Z,46.11
2024-02-29T18:22:35.878Z,46.08
2024-02-29T18:25:02.807Z,46.25
2024-02-29T18:27:29.748Z,46.42
2024-02-29T18:29:56.413Z,46.37
2024-02-29T18:32:23.145Z,46.22
2024-02-29T18:34:49.789Z,46.19
2024-02-29T18:37:16.440Z,46.33
2024-02-29T18:39:43.174Z,46.14
2024-02-29T18:42:10.402Z,46.37
2024-02-29T18:44:37.070Z,46.07
2024-02-29T18:47:03.943Z,46.21
2024-02-29T18:49:30.682Z,46.15
2024-02-29T18:51:57.485Z,46.28
2024-02-29T18:54:24.170Z,46.35
2024-02-29T18:56:50.844Z,46.21
2024-02-29T18:59:18.377Z,46.47
2024-02-29T19:01:45.368Z,46.31
2024-02-29T19:04:13.015Z,46.43
2024-02-29T19:06:39.727Z,46.30
2024-02-29T19:09:07.452Z,46.25
2024-02-29T19:11:35.133Z,46.50
2024-02-29T19:14:01.845Z,46.25
2024-02-29T19:16:28.573Z,46.47
2024-02-29T19:18:55.327Z,46.36
2024-02-29T19:21:21.994Z,46.61
2024-02-29T19:23:49.070Z,46.29
2024-02-29T19:26:15.810Z,46.21
2024-02-29T19:28:42.432Z,46.23
2024-02-29T19:31:09.116Z,46.46
2024-02-29T19:33:38.960Z,46.19
2024-02-29T19:36:06.773Z,46.29
2024-02-29T19:38:33.387Z,46.37
2024-02-29T19:40:59.990Z,46.05
2024-02-29T19:43:26.671Z,46.12
2024-02-29T19:45:53.446Z,46.21
2024-02-29T19:48:20.109Z,46.21
2024-02-29T19:50:48.318Z,46.33
2024-02-29T19:53:15.143Z,46.27
2024-02-29T19:55:43.260Z,46.37
2024-02-29T19:58:10.487Z,46.24
2024-02-29T20:00:37.220Z,46.15
2024-02-29T20:03:04.155Z,46.05
2024-02-29T20:05:31.687Z,46.17
2024-02-29T20:07:58.423Z,46.06
2024-02-29T20:10:25.327Z,46.14
2024-02-29T20:12:52.096Z,46.40
2024-02-29T20:15:18.862Z,45.96
2024-02-29T20:17:45.511Z,45.87
2024-02-29T20:20:12.459Z,45.99
2024-02-29T20:22:39.159Z,46.05
2024-02-29T20:25:06.833Z,45.91
2024-02-29T20:27:36.798Z,45.91
2024-02-29T20:30:04.558Z,45.91
2024-02-29T20:32:31.235Z,46.11
2024-02-29T20:34:57.875Z,46.31
2024-02-29T20:37:24.649Z,46.03
2024-02-29T20:39:53.011Z,46.08
2024-02-29T20:42:19.615Z,46.17
2024-02-29T20:44:46.240Z,46.22
2024-02-29T20:47:12.894Z,46.06
2024-02-29T20:49:39.582Z,46.04
2024-02-29T20:52:07.805Z,46.13
2024-02-29T20:54:34.550Z,46.01
2024-02-29T20:57:01.169Z,46.09
2024-02-29T20:59:28.492Z,46.07
2024-02-29T21:01:55.235Z,45.82
2024-02-29T21:04:22.068Z,45.97
2024-02-29T21:06:49.221Z,46.02
2024-02-29T21:09:16.426Z,45.92
2024-02-29T21:11:44.249Z,46.06
2024-02-29T21:14:10.928Z,45.99
2024-02-29T21:16:37.720Z,45.88
2024-02-29T21:19:04.437Z,45.72
2024-02-29T21:21:32.338Z,46.12
2024-02-29T21:23:58.986Z,46.16
2024-02-29T21:26:25.604Z,45.87
2024-02-29T21:28:52.225Z,46.02
2024-02-29T21:31:19.077Z,46.29
2024-02-29T21:33:45.775Z,46.09
2024-02-29T21:36:12.573Z,46.04
2024-02-29T21:38:39.199Z,46.20
2024-02-29T21:41:05.803Z,46.17
2024-02-29T21:43:32.491Z,46.18
2024-02-29T21:45:59.473Z,45.98
2024-02-29T21:48:26.107Z,46.09
2024-02-29T21:50:53.011Z,46.24
2024-02-29T21:53:19.757Z,46.01
2024-02-29T21:55:46.431Z,46.04
2024-02-29T21:58:13.146Z,46.26
2024-02-29T22:00:39.822Z,46.05
2024-02-29T22:03:06.483Z,46.20
2024-02-29T22:05:33.200Z,46.14
2024-02-29T22:07:59.824Z,46.24
2024-02-29T22:10:26.546Z,45.85
2024-02-29T22:12:53.924Z,46.04
2024-02-29T22:15:20.649Z,46.18
2024-02-29T22:17:47.494Z,46.04
2024-02-29T22:20:14.168Z,46.10
2024-02-29T22:22:40.796Z,46.13
2024-02-29T22:25:08.607Z,45.99
2024-02-29T22:27:35.291Z,45.94
2024-02-29T22:30:02.018Z,46.22
2024-02-29T22:32:28.695Z,46.05
2024-02-29T22:34:55.345Z,46.00
2024-02-29T22:37:22.409Z,46.17
2024-02-29T22:39:49.476Z,46.17
2024-02-29T22:42:16.128Z,45.97
2024-02-29T22:44:42.721Z,46.33
2024-02-29T22:47:09.368Z,46.02
2024-02-29T22:49:36.007Z,46.03
2024-02-29T22:52:03.078Z,46.00
2024-02-29T22:54:29.766Z,46.01
2024-02-29T22:56:56.387Z,45.99
2024-02-29T22:59:23.028Z,45.93
2024-02-29T23:01:49.858Z,46.07
2024-02-29T23:04:16.819Z,45.88
2024-02-29T23:06:44.389Z,46.03
2024-02-29T23:09:11.694Z,46.04
2024-02-29T23:11:38.808Z,45.91
2024-02-29T23:14:05.555Z,46.18
2024-02-29T23:16:32.313Z,45.89
2024-02-29T23:18:59.058Z,46.23
2024-02-29T23:21:25.758Z,46.08
2024-02-29T23:23:52.428Z,46.13
2024-02-29T23:26:19.081Z,46.03
2024-02-29T23:28:45.712Z,46.24
2024-02-29T23:31:12.740Z,46.28
2024-02-29T23:33:39.541Z,45.97
2024-02-29T23:36:07.818Z,46.19
2024-02-29T23:38:34.577Z,46.07
2024-02-29T23:41:01.244Z,46.01
2024-02-29T23:43:28.607Z,46.09
2024-02-29T23:45:55.306Z,45.99
2024-02-29T23:48:22.548Z,46.12
2024-02-29T23:50:49.495Z,46.09
2024-02-29T23:53:16.120Z,45.99
2024-02-29T23:55:42.811Z,45.95
2024-02-29T23:58:09.475Z,45.87
